Time;durP1;ratioP1;P1;durP2;ratioP2;P2;SDS_P1;SDS_P2;PMS_P1;PMS_P2;Temp;Humidity;BMP_temperature;BMP_pressure;BME280_temperature;BME280_humidity;BME280_pressure;Samples;Min_cycle;Max_cycle;Signal;HPM_P1;HPM_P2
2022/07/17 00:02:04;;;;;;;4.75;4.28;;;;;;;;;;5111469;28;20744;-44
2022/07/17 00:04:29;;;;;;;4.78;3.85;;;;;;;;;;5112535;27;20779;-44
2022/07/17 00:06:54;;;;;;;5.75;4.13;;;;;;;;;;5109998;27;20489;-44
2022/07/17 00:09:20;;;;;;;4.85;4.10;;;;;;;;;;5112179;27;20606;-44
2022/07/17 00:11:45;;;;;;;5.47;3.72;;;;;;;;;;5109014;28;20601;-45
2022/07/17 00:14:11;;;;;;;4.75;4.35;;;;;;;;;;5111898;27;20065;-44
2022/07/17 00:16:36;;;;;;;4.05;3.63;;;;;;;;;;5113794;27;20072;-47
2022/07/17 00:19:01;;;;;;;3.80;3.50;;;;;;;;;;5114370;27;20415;-47
2022/07/17 00:21:27;;;;;;;5.03;4.45;;;;;;;;;;5109851;28;20127;-46
2022/07/17 00:23:52;;;;;;;3.97;2.53;;;;;;;;;;5110594;28;20058;-45
2022/07/17 00:26:17;;;;;;;4.40;3.85;;;;;;;;;;5117003;27;20046;-48
2022/07/17 00:28:43;;;;;;;4.28;3.67;;;;;;;;;;5112861;27;20074;-44
2022/07/17 00:31:08;;;;;;;5.53;3.95;;;;;;;;;;5117740;27;20039;-45
2022/07/17 00:33:33;;;;;;;8.77;3.55;;;;;;;;;;5112304;27;20031;-45
2022/07/17 00:35:59;;;;;;;5.97;3.90;;;;;;;;;;5111154;28;20129;-45
2022/07/17 00:38:24;;;;;;;4.13;3.67;;;;;;;;;;5111452;27;20043;-47
2022/07/17 00:40:52;;;;;;;8.40;5.00;;;;;;;;;;5108297;27;20043;-45
2022/07/17 00:43:17;;;;;;;4.07;3.38;;;;;;;;;;5110294;28;20154;-44
2022/07/17 00:45:43;;;;;;;5.25;4.13;;;;;;;;;;5116028;27;20130;-47
2022/07/17 00:48:10;;;;;;;7.78;3.72;;;;;;;;;;5114194;27;20597;-43
2022/07/17 00:50:37;;;;;;;12.05;4.50;;;;;;;;;;5110236;27;20525;-46
2022/07/17 00:53:03;;;;;;;6.15;3.65;;;;;;;;;;5109039;27;20064;-47
2022/07/17 00:55:28;;;;;;;5.78;4.53;;;;;;;;;;5107474;27;20352;-47
2022/07/17 00:57:54;;;;;;;7.85;4.78;;;;;;;;;;5110445;27;20051;-44
2022/07/17 01:00:20;;;;;;;4.20;3.78;;;;;;;;;;5112033;27;20060;-45
2022/07/17 01:02:47;;;;;;;4.95;4.03;;;;;;;;;;5106304;27;20701;-44
2022/07/17 01:05:13;;;;;;;3.97;3.42;;;;;;;;;;5110676;27;20047;-44
2022/07/17 01:07:38;;;;;;;8.05;3.78;;;;;;;;;;5111990;27;20556;-46
2022/07/17 01:10:03;;;;;;;4.65;4.05;;;;;;;;;;5111302;27;20108;-41
2022/07/17 01:12:30;;;;;;;4.90;4.32;;;;;;;;;;5110228;28;20458;-45
2022/07/17 01:14:55;;;;;;;5.18;4.68;;;;;;;;;;5109114;28;20231;-44
2022/07/17 01:17:20;;;;;;;5.75;4.70;;;;;;;;;;5111265;27;20513;-49
2022/07/17 01:19:46;;;;;;;5.00;4.25;;;;;;;;;;5113411;27;20047;-42
2022/07/17 01:22:11;;;;;;;4.45;4.00;;;;;;;;;;5111568;27;20422;-43
2022/07/17 01:24:40;;;;;;;5.53;3.83;;;;;;;;;;5112898;27;20522;-45
2022/07/17 01:27:05;;;;;;;5.57;5.05;;;;;;;;;;5110869;27;20066;-46
2022/07/17 01:29:30;;;;;;;7.63;5.50;;;;;;;;;;5105623;27;20709;-46
2022/07/17 01:31:56;;;;;;;6.07;3.55;;;;;;;;;;5112508;27;20537;-47
2022/07/17 01:34:21;;;;;;;5.97;4.50;;;;;;;;;;5108885;27;20047;-46
2022/07/17 01:36:46;;;;;;;9.27;4.70;;;;;;;;;;5110496;27;20039;-47
2022/07/17 01:39:12;;;;;;;3.78;3.20;;;;;;;;;;5114161;28;20166;-48
2022/07/17 01:41:37;;;;;;;5.53;4.30;;;;;;;;;;5111425;27;20138;-47
2022/07/17 01:44:03;;;;;;;19.48;5.88;;;;;;;;;;5111951;27;20047;-44
2022/07/17 01:46:29;;;;;;;6.53;3.95;;;;;;;;;;5111902;27;20055;-45
2022/07/17 01:48:54;;;;;;;4.32;3.58;;;;;;;;;;5111297;27;20171;-45
2022/07/17 01:51:19;;;;;;;4.28;3.88;;;;;;;;;;5112102;27;20408;-42
2022/07/17 01:53:45;;;;;;;8.82;3.92;;;;;;;;;;5110837;27;20594;-47
2022/07/17 01:56:10;;;;;;;5.95;3.80;;;;;;;;;;5114658;27;20050;-44
2022/07/17 01:58:35;;;;;;;9.70;4.50;;;;;;;;;;5109986;27;20430;-46
2022/07/17 02:01:01;;;;;;;6.43;4.65;;;;;;;;;;5111337;27;20383;-45
2022/07/17 02:03:26;;;;;;;6.47;4.88;;;;;;;;;;5111130;27;20114;-51
2022/07/17 02:05:51;;;;;;;5.38;4.70;;;;;;;;;;5113069;27;20736;-45
2022/07/17 02:08:17;;;;;;;4.13;3.72;;;;;;;;;;5109997;27;20511;-43
2022/07/17 02:10:42;;;;;;;7.50;5.28;;;;;;;;;;5101838;28;20043;-45
2022/07/17 02:13:08;;;;;;;8.07;3.55;;;;;;;;;;5110752;27;20477;-49
2022/07/17 02:15:33;;;;;;;6.18;4.43;;;;;;;;;;5110387;27;20047;-44
2022/07/17 02:17:58;;;;;;;13.30;5.32;;;;;;;;;;5106352;27;20143;-47
2022/07/17 02:20:24;;;;;;;9.60;4.40;;;;;;;;;;5112082;28;20422;-45
2022/07/17 02:22:49;;;;;;;8.15;4.35;;;;;;;;;;5110852;27;20510;-43
2022/07/17 02:25:15;;;;;;;5.00;4.25;;;;;;;;;;5114965;27;20059;-49
2022/07/17 02:27:40;;;;;;;5.32;4.82;;;;;;;;;;5108015;28;20055;-46
2022/07/17 02:30:13;;;;;;;5.50;4.53;;;;;;;;;;5108880;27;20067;-44
2022/07/17 02:32:39;;;;;;;6.43;4.57;;;;;;;;;;5107256;27;20043;-47
2022/07/17 02:35:05;;;;;;;5.05;4.65;;;;;;;;;;5112794;28;20126;-47
2022/07/17 02:37:30;;;;;;;6.00;5.38;;;;;;;;;;5114976;27;20043;-47
2022/07/17 02:39:56;;;;;;;9.27;5.78;;;;;;;;;;5110633;28;20044;-44
2022/07/17 02:42:22;;;;;;;4.55;4.15;;;;;;;;;;5110094;27;20036;-46
2022/07/17 02:44:48;;;;;;;5.47;4.97;;;;;;;;;;5109791;27;20047;-48
2022/07/17 02:47:19;;;;;;;6.78;4.15;;;;;;;;;;5108518;27;20090;-43
2022/07/17 02:49:45;;;;;;;5.60;4.80;;;;;;;;;;5111189;27;20141;-44
2022/07/17 02:52:10;;;;;;;4.80;4.22;;;;;;;;;;5111186;28;20521;-43
2022/07/17 02:54:36;;;;;;;14.45;4.53;;;;;;;;;;5109865;27;20118;-46
2022/07/17 02:57:01;;;;;;;12.43;4.57;;;;;;;;;;5110147;27;20040;-45
2022/07/17 02:59:27;;;;;;;4.57;4.05;;;;;;;;;;5111019;27;20727;-43
2022/07/17 03:01:52;;;;;;;4.70;4.22;;;;;;;;;;5113144;28;20438;-46
2022/07/17 03:04:17;;;;;;;5.07;4.53;;;;;;;;;;5117040;27;20073;-44
2022/07/17 03:06:42;;;;;;;5.50;5.00;;;;;;;;;;5113385;27;20177;-44
2022/07/17 03:09:08;;;;;;;6.78;5.25;;;;;;;;;;5111608;27;20039;-46
2022/07/17 03:11:33;;;;;;;5.10;4.50;;;;;;;;;;5116307;27;20293;-42
2022/07/17 03:13:58;;;;;;;6.80;4.68;;;;;;;;;;5111490;27;20051;-43
2022/07/17 03:16:24;;;;;;;5.50;4.75;;;;;;;;;;5115204;27;20043;-43
2022/07/17 03:18:49;;;;;;;5.65;5.05;;;;;;;;;;5114410;27;20155;-49
2022/07/17 03:21:14;;;;;;;8.75;5.85;;;;;;;;;;5111528;27;20471;-48
2022/07/17 03:23:39;;;;;;;12.52;5.57;;;;;;;;;;5110370;27;20108;-48
2022/07/17 03:26:05;;;;;;;6.13;5.53;;;;;;;;;;5114446;27;20044;-47
2022/07/17 03:28:30;;;;;;;6.97;4.90;;;;;;;;;;5112962;27;20058;-46
2022/07/17 03:30:55;;;;;;;26.52;7.43;;;;;;;;;;5113151;28;20498;-47
2022/07/17 03:33:21;;;;;;;8.43;4.75;;;;;;;;;;5115723;27;20039;-44
2022/07/17 03:35:46;;;;;;;5.40;4.90;;;;;;;;;;5115176;27;20056;-43
2022/07/17 03:38:11;;;;;;;5.85;5.30;;;;;;;;;;5111347;27;20030;-45
2022/07/17 03:40:37;;;;;;;5.82;5.03;;;;;;;;;;5111937;27;20054;-43
2022/07/17 03:43:02;;;;;;;8.75;5.78;;;;;;;;;;5113316;27;20046;-42
2022/07/17 03:45:27;;;;;;;8.98;6.05;;;;;;;;;;5113951;27;20093;-45
2022/07/17 03:47:55;;;;;;;8.15;4.95;;;;;;;;;;5106400;28;20063;-47
2022/07/17 03:50:21;;;;;;;10.35;9.10;;;;;;;;;;5110952;27;20047;-44
2022/07/17 03:52:46;;;;;;;6.18;5.57;;;;;;;;;;5112170;28;20466;-43
2022/07/17 03:55:12;;;;;;;6.60;5.95;;;;;;;;;;5114172;27;20582;-47
2022/07/17 03:57:37;;;;;;;7.32;6.10;;;;;;;;;;5105847;27;20054;-45
2022/07/17 04:00:03;;;;;;;6.40;5.90;;;;;;;;;;5113786;27;20035;-42
2022/07/17 04:02:28;;;;;;;7.93;6.43;;;;;;;;;;5113591;27;20192;-45
2022/07/17 04:04:53;;;;;;;6.63;6.03;;;;;;;;;;5113956;27;20779;-44
2022/07/17 04:07:28;;;;;;;6.82;6.03;;;;;;;;;;5113369;28;20102;-45
2022/07/17 04:09:54;;;;;;;5.68;5.18;;;;;;;;;;5112807;27;20181;-44
2022/07/17 04:12:19;;;;;;;6.55;5.90;;;;;;;;;;5120896;27;20134;-46
2022/07/17 04:14:44;;;;;;;6.97;6.07;;;;;;;;;;5121254;27;20121;-47
2022/07/17 04:17:10;;;;;;;5.28;4.78;;;;;;;;;;5119775;27;20063;-45
2022/07/17 04:19:35;;;;;;;5.80;5.20;;;;;;;;;;5116150;27;20035;-46
2022/07/17 04:22:00;;;;;;;5.93;5.43;;;;;;;;;;5115540;27;20054;-49
2022/07/17 04:24:26;;;;;;;7.05;5.10;;;;;;;;;;5115006;27;20131;-47
2022/07/17 04:26:51;;;;;;;5.78;5.25;;;;;;;;;;5108923;27;20047;-44
2022/07/17 04:29:16;;;;;;;6.45;5.38;;;;;;;;;;5115858;27;20612;-47
2022/07/17 04:31:41;;;;;;;5.60;4.80;;;;;;;;;;5116055;27;20817;-45
2022/07/17 04:34:07;;;;;;;9.15;6.65;;;;;;;;;;5111847;27;20416;-42
2022/07/17 04:36:32;;;;;;;9.52;5.95;;;;;;;;;;5111817;27;20648;-43
2022/07/17 04:38:58;;;;;;;8.45;5.90;;;;;;;;;;5117945;27;20040;-45
2022/07/17 04:41:23;;;;;;;12.43;7.18;;;;;;;;;;5116959;27;20047;-43
2022/07/17 04:43:48;;;;;;;6.07;5.22;;;;;;;;;;5115252;27;20053;-44
2022/07/17 04:46:13;;;;;;;7.30;4.97;;;;;;;;;;5115526;27;20139;-45
2022/07/17 04:48:39;;;;;;;6.25;5.65;;;;;;;;;;5113331;27;20118;-49
2022/07/17 04:51:04;;;;;;;8.80;7.25;;;;;;;;;;5109868;28;20034;-48
2022/07/17 04:53:30;;;;;;;8.02;6.25;;;;;;;;;;5113770;27;20031;-44
2022/07/17 04:55:56;;;;;;;9.18;4.95;;;;;;;;;;5114339;28;20129;-47
2022/07/17 04:58:24;;;;;;;7.80;6.68;;;;;;;;;;5114000;27;20114;-44
2022/07/17 05:00:50;;;;;;;7.55;5.88;;;;;;;;;;5113371;27;20038;-46
2022/07/17 05:03:15;;;;;;;6.10;5.50;;;;;;;;;;5116303;27;20701;-46
2022/07/17 05:05:43;;;;;;;9.48;6.85;;;;;;;;;;5115352;28;20080;-46
2022/07/17 05:08:09;;;;;;;13.82;5.70;;;;;;;;;;5116437;27;20039;-48
2022/07/17 05:10:34;;;;;;;7.88;5.38;;;;;;;;;;5116165;27;20513;-45
2022/07/17 05:12:59;;;;;;;10.38;6.03;;;;;;;;;;5111895;27;20040;-42
2022/07/17 05:15:25;;;;;;;7.57;6.07;;;;;;;;;;5113071;27;20052;-48
2022/07/17 05:17:50;;;;;;;11.70;7.88;;;;;;;;;;5109848;27;20044;-49
2022/07/17 05:20:17;;;;;;;8.00;7.05;;;;;;;;;;5118049;27;20612;-47
2022/07/17 05:22:43;;;;;;;9.15;5.95;;;;;;;;;;5114625;27;20050;-43
2022/07/17 05:25:08;;;;;;;12.95;6.93;;;;;;;;;;5113678;27;20406;-46
2022/07/17 05:27:34;;;;;;;12.35;5.45;;;;;;;;;;5114943;27;20485;-49
2022/07/17 05:29:59;;;;;;;6.30;5.70;;;;;;;;;;5114799;27;20058;-48
2022/07/17 05:32:24;;;;;;;6.18;5.45;;;;;;;;;;5114255;27;20096;-43
2022/07/17 05:34:50;;;;;;;6.13;5.45;;;;;;;;;;5117649;27;20457;-44
2022/07/17 05:37:15;;;;;;;13.80;6.43;;;;;;;;;;5112746;27;20538;-43
2022/07/17 05:39:41;;;;;;;7.40;6.60;;;;;;;;;;5116965;27;20554;-45
2022/07/17 05:42:06;;;;;;;12.23;8.00;;;;;;;;;;5117216;27;20067;-48
2022/07/17 05:44:31;;;;;;;10.38;6.78;;;;;;;;;;5112586;27;20053;-48
2022/07/17 05:46:57;;;;;;;7.25;6.57;;;;;;;;;;5114280;27;20133;-44
2022/07/17 05:49:22;;;;;;;7.80;6.70;;;;;;;;;;5109239;28;20036;-45
2022/07/17 05:51:47;;;;;;;12.90;7.13;;;;;;;;;;5115731;27;20101;-43
2022/07/17 05:54:13;;;;;;;9.25;8.35;;;;;;;;;;5112375;28;20055;-46
2022/07/17 05:56:38;;;;;;;9.82;7.00;;;;;;;;;;5113116;27;20035;-46
2022/07/17 05:59:06;;;;;;;9.95;8.05;;;;;;;;;;5112970;27;20038;-44
2022/07/17 06:01:31;;;;;;;17.02;7.88;;;;;;;;;;5113984;27;20071;-44
2022/07/17 06:04:02;;;;;;;8.63;6.95;;;;;;;;;;5109417;27;20081;-43
2022/07/17 06:06:27;;;;;;;7.88;7.18;;;;;;;;;;5112771;27;20066;-43
2022/07/17 06:08:53;;;;;;;31.27;7.47;;;;;;;;;;5112726;27;20035;-45
2022/07/17 06:11:18;;;;;;;10.93;7.20;;;;;;;;;;5109586;27;20131;-47
2022/07/17 06:13:43;;;;;;;7.85;5.78;;;;;;;;;;5111014;28;20162;-46
2022/07/17 06:16:09;;;;;;;7.13;6.22;;;;;;;;;;5109380;27;20079;-45
2022/07/17 06:18:34;;;;;;;7.65;6.95;;;;;;;;;;5111170;27;20044;-45
2022/07/17 06:20:59;;;;;;;7.15;6.40;;;;;;;;;;5115882;27;20047;-45
2022/07/17 06:23:30;;;;;;;7.03;6.32;;;;;;;;;;5113470;28;20054;-46
2022/07/17 06:25:55;;;;;;;7.03;6.43;;;;;;;;;;5107420;28;20058;-48
2022/07/17 06:28:21;;;;;;;23.42;6.90;;;;;;;;;;5110194;27;20043;-47
2022/07/17 06:30:51;;;;;;;10.15;6.78;;;;;;;;;;5115079;27;20505;-44
2022/07/17 06:33:17;;;;;;;6.60;5.97;;;;;;;;;;5109330;27;20062;-45
2022/07/17 06:35:42;;;;;;;6.40;5.78;;;;;;;;;;5114603;27;20491;-45
2022/07/17 06:38:08;;;;;;;8.65;6.03;;;;;;;;;;5119894;27;20070;-43
2022/07/17 06:40:33;;;;;;;9.23;6.70;;;;;;;;;;5122788;27;20051;-43
2022/07/17 06:43:02;;;;;;;7.82;7.05;;;;;;;;;;5115672;27;20036;-44
2022/07/17 06:45:27;;;;;;;6.50;5.75;;;;;;;;;;5114375;27;20047;-42
2022/07/17 06:47:56;;;;;;;6.85;6.03;;;;;;;;;;5116220;28;20075;-43
2022/07/17 06:50:21;;;;;;;6.63;6.00;;;;;;;;;;5116512;27;20028;-42
2022/07/17 06:52:46;;;;;;;6.43;5.82;;;;;;;;;;5114261;27;20035;-41
2022/07/17 06:55:11;;;;;;;7.35;6.53;;;;;;;;;;5115555;27;20039;-44
2022/07/17 06:57:37;;;;;;;9.20;6.47;;;;;;;;;;5117499;27;20652;-49
2022/07/17 07:00:03;;;;;;;6.90;6.20;;;;;;;;;;5114579;27;20160;-45
2022/07/17 07:02:28;;;;;;;7.68;6.97;;;;;;;;;;5116240;27;21186;-43
2022/07/17 07:04:54;;;;;;;8.70;7.78;;;;;;;;;;5115125;28;20455;-44
2022/07/17 07:07:19;;;;;;;11.50;8.80;;;;;;;;;;5109050;27;20108;-47
2022/07/17 07:09:44;;;;;;;14.82;8.57;;;;;;;;;;5110403;27;20130;-44
2022/07/17 07:12:09;;;;;;;7.25;6.47;;;;;;;;;;5116717;27;20040;-45
2022/07/17 07:14:35;;;;;;;9.80;7.43;;;;;;;;;;5115890;27;20074;-44
2022/07/17 07:17:00;;;;;;;7.97;7.18;;;;;;;;;;5117495;27;20139;-48
2022/07/17 07:19:25;;;;;;;7.07;6.38;;;;;;;;;;5120829;27;20693;-45
2022/07/17 07:21:51;;;;;;;7.30;6.40;;;;;;;;;;5105946;27;20036;-44
2022/07/17 07:24:16;;;;;;;5.03;4.55;;;;;;;;;;5116061;27;20074;-45
2022/07/17 07:26:41;;;;;;;5.68;4.35;;;;;;;;;;5116121;27;20048;-43
2022/07/17 07:29:07;;;;;;;5.25;4.75;;;;;;;;;;5112149;27;20049;-49
2022/07/17 07:31:32;;;;;;;7.18;6.40;;;;;;;;;;5111533;28;20031;-44
2022/07/17 07:33:58;;;;;;;26.50;6.70;;;;;;;;;;5103290;28;20505;-48
2022/07/17 07:36:23;;;;;;;6.18;5.57;;;;;;;;;;5114309;27;20047;-45
2022/07/17 07:38:49;;;;;;;10.02;6.05;;;;;;;;;;5117489;27;20172;-45
2022/07/17 07:41:15;;;;;;;7.13;6.38;;;;;;;;;;5113527;27;20032;-43
2022/07/17 07:43:40;;;;;;;6.65;6.05;;;;;;;;;;5089657;28;20044;-45
2022/07/17 07:46:06;;;;;;;5.63;5.05;;;;;;;;;;5113341;27;20048;-46
2022/07/17 07:48:31;;;;;;;6.10;5.60;;;;;;;;;;5112180;27;20047;-43
2022/07/17 07:50:57;;;;;;;6.88;5.45;;;;;;;;;;5119459;28;20042;-48
2022/07/17 07:53:22;;;;;;;6.60;6.00;;;;;;;;;;5113622;27;20096;-48
2022/07/17 07:55:47;;;;;;;8.63;6.50;;;;;;;;;;5114623;27;20123;-44
2022/07/17 07:58:13;;;;;;;8.18;7.18;;;;;;;;;;5113994;28;20052;-45
2022/07/17 08:00:39;;;;;;;8.25;4.53;;;;;;;;;;5114774;27;20102;-45
2022/07/17 08:03:05;;;;;;;5.88;4.60;;;;;;;;;;5116543;27;20047;-44
2022/07/17 08:05:30;;;;;;;6.95;6.25;;;;;;;;;;5115598;27;20419;-47
2022/07/17 08:07:56;;;;;;;5.20;4.18;;;;;;;;;;5111780;27;20054;-52
2022/07/17 08:10:21;;;;;;;5.25;4.72;;;;;;;;;;5114879;27;20446;-53
2022/07/17 08:12:47;;;;;;;10.50;4.55;;;;;;;;;;5112444;27;20411;-48
2022/07/17 08:15:13;;;;;;;4.93;4.43;;;;;;;;;;5114526;27;20043;-53
2022/07/17 08:17:38;;;;;;;5.43;4.20;;;;;;;;;;5115425;28;20065;-52
2022/07/17 08:20:04;;;;;;;7.78;5.00;;;;;;;;;;5113026;27;20558;-52
2022/07/17 08:22:29;;;;;;;2.83;2.47;;;;;;;;;;5115597;27;20120;-53
2022/07/17 08:24:55;;;;;;;6.43;3.92;;;;;;;;;;5115768;27;20126;-55
2022/07/17 08:27:22;;;;;;;2.88;2.55;;;;;;;;;;5114303;27;20043;-49
2022/07/17 08:29:48;;;;;;;2.28;1.00;;;;;;;;;;5112795;27;20392;-55
2022/07/17 08:32:13;;;;;;;4.13;3.22;;;;;;;;;;5116277;27;20038;-51
2022/07/17 08:34:38;;;;;;;4.18;3.20;;;;;;;;;;5116461;27;20036;-50
2022/07/17 08:37:03;;;;;;;6.88;2.83;;;;;;;;;;5113388;27;20438;-55
2022/07/17 08:39:29;;;;;;;3.13;2.00;;;;;;;;;;5109435;28;20138;-54
2022/07/17 08:41:54;;;;;;;2.42;2.15;;;;;;;;;;5110603;27;20503;-53
2022/07/17 08:44:19;;;;;;;2.55;2.22;;;;;;;;;;5115665;27;20043;-51
2022/07/17 08:46:45;;;;;;;3.15;2.28;;;;;;;;;;5108800;27;20053;-52
2022/07/17 08:49:11;;;;;;;2.83;2.20;;;;;;;;;;5112937;27;20048;-50
2022/07/17 08:51:36;;;;;;;3.17;1.67;;;;;;;;;;5118363;27;20042;-48
2022/07/17 08:54:02;;;;;;;9.88;1.88;;;;;;;;;;5114824;28;20043;-51
2022/07/17 08:56:27;;;;;;;3.75;2.70;;;;;;;;;;5113563;27;20055;-45
2022/07/17 08:58:53;;;;;;;3.75;2.33;;;;;;;;;;5112731;27;20605;-45
2022/07/17 09:01:19;;;;;;;4.28;2.75;;;;;;;;;;5106115;28;20040;-48
2022/07/17 09:03:57;;;;;;;3.30;2.13;;;;;;;;;;5110701;27;20911;-51
2022/07/17 09:06:23;;;;;;;3.00;1.95;;;;;;;;;;5114772;27;20056;-48
2022/07/17 09:08:48;;;;;;;2.88;2.22;;;;;;;;;;5115343;27;20115;-47
2022/07/17 09:11:13;;;;;;;1.98;1.27;;;;;;;;;;5115187;27;20055;-51
2022/07/17 09:13:42;;;;;;;2.53;1.40;;;;;;;;;;5110638;27;20553;-52
2022/07/17 09:16:10;;;;;;;2.67;1.80;;;;;;;;;;5111162;27;20247;-50
2022/07/17 09:19:02;;;;;;;3.33;2.38;;;;;;;;;;5111389;27;20047;-48
2022/07/17 09:21:28;;;;;;;3.10;2.35;;;;;;;;;;5109048;27;20031;-48
2022/07/17 09:24:00;;;;;;;3.67;2.78;;;;;;;;;;5108855;27;20717;-50
2022/07/17 09:26:26;;;;;;;3.55;2.40;;;;;;;;;;5111953;27;20126;-49
2022/07/17 09:28:52;;;;;;;2.95;2.28;;;;;;;;;;5113864;27;20090;-47
2022/07/17 09:31:24;;;;;;;2.63;2.05;;;;;;;;;;5110093;27;20089;-48
2022/07/17 09:33:49;;;;;;;1.67;1.15;;;;;;;;;;5108343;27;20032;-48
2022/07/17 09:36:15;;;;;;;2.80;1.92;;;;;;;;;;5110471;28;20044;-48
2022/07/17 09:38:41;;;;;;;3.17;2.65;;;;;;;;;;5114099;27;20047;-51
2022/07/17 09:41:18;;;;;;;2.40;1.73;;;;;;;;;;5110016;27;20426;-50
2022/07/17 09:43:44;;;;;;;2.55;2.13;;;;;;;;;;5111673;28;20055;-49
2022/07/17 09:46:12;;;;;;;1.95;1.63;;;;;;;;;;5109699;27;20031;-51
2022/07/17 09:48:40;;;;;;;2.47;1.70;;;;;;;;;;5110208;27;20044;-50
2022/07/17 09:51:06;;;;;;;4.03;1.75;;;;;;;;;;5108493;28;20044;-49
2022/07/17 09:53:36;;;;;;;2.28;1.80;;;;;;;;;;5112259;27;20134;-48
2022/07/17 09:56:02;;;;;;;2.13;1.60;;;;;;;;;;5110420;28;20043;-49
2022/07/17 09:58:29;;;;;;;2.20;1.88;;;;;;;;;;5111812;27;20031;-48
2022/07/17 10:00:54;;;;;;;3.00;2.13;;;;;;;;;;5114361;27;20533;-51
2022/07/17 10:03:20;;;;;;;2.60;1.95;;;;;;;;;;5108313;27;20071;-47
2022/07/17 10:05:45;;;;;;;8.23;2.35;;;;;;;;;;5109523;27;20092;-47
2022/07/17 10:08:11;;;;;;;3.53;2.33;;;;;;;;;;5110000;27;20109;-46
2022/07/17 10:10:36;;;;;;;1.75;1.55;;;;;;;;;;5112187;27;20043;-47
2022/07/17 10:13:02;;;;;;;3.10;2.80;;;;;;;;;;5109523;28;20485;-51
2022/07/17 10:15:27;;;;;;;3.97;2.35;;;;;;;;;;5112131;27;20563;-49
2022/07/17 10:18:11;;;;;;;3.75;2.20;;;;;;;;;;5109727;27;20027;-45
2022/07/17 10:20:36;;;;;;;2.15;1.42;;;;;;;;;;5111436;27;20146;-51
2022/07/17 10:23:11;;;;;;;3.00;2.03;;;;;;;;;;5110831;27;20146;-47
2022/07/17 10:25:36;;;;;;;8.35;2.47;;;;;;;;;;5110140;27;20092;-50
2022/07/17 10:28:01;;;;;;;2.13;1.73;;;;;;;;;;5115363;27;20131;-52
2022/07/17 10:30:28;;;;;;;3.25;2.38;;;;;;;;;;5115085;27;20294;-51
2022/07/17 10:32:58;;;;;;;2.78;2.47;;;;;;;;;;5115556;27;20073;-50
2022/07/17 10:35:23;;;;;;;5.30;3.05;;;;;;;;;;5113421;27;20039;-48
2022/07/17 10:37:49;;;;;;;5.72;2.67;;;;;;;;;;5113155;27;20044;-50
2022/07/17 10:40:14;;;;;;;2.30;1.45;;;;;;;;;;5111926;28;20129;-50
2022/07/17 10:42:52;;;;;;;3.85;2.10;;;;;;;;;;5110824;27;20055;-51
2022/07/17 10:45:17;;;;;;;16.63;3.13;;;;;;;;;;5113934;27;20031;-50
2022/07/17 10:47:53;;;;;;;12.20;2.40;;;;;;;;;;5114211;27;20039;-50
2022/07/17 10:50:21;;;;;;;2.40;2.20;;;;;;;;;;5109679;28;20149;-49
2022/07/17 10:53:17;;;;;;;2.58;2.22;;;;;;;;;;5108055;27;20031;-51
2022/07/17 10:55:43;;;;;;;3.20;1.80;;;;;;;;;;5091907;28;20501;-52
2022/07/17 10:58:35;;;;;;;2.45;1.58;;;;;;;;;;5111334;27;20502;-53
2022/07/17 11:01:12;;;;;;;2.40;1.83;;;;;;;;;;5106003;27;20027;-46
2022/07/17 11:03:43;;;;;;;2.25;1.67;;;;;;;;;;5109724;28;20062;-49
2022/07/17 11:06:08;;;;;;;3.38;2.00;;;;;;;;;;5111293;27;20055;-51
2022/07/17 11:08:45;;;;;;;5.13;2.08;;;;;;;;;;5112209;27;20054;-52
2022/07/17 11:11:10;;;;;;;2.92;1.50;;;;;;;;;;5111231;28;20048;-50
2022/07/17 11:13:35;;;;;;;3.05;1.98;;;;;;;;;;5111874;28;20050;-45
2022/07/17 11:16:01;;;;;;;5.43;2.05;;;;;;;;;;5111781;27;20533;-45
2022/07/17 11:18:26;;;;;;;2.50;2.05;;;;;;;;;;5110510;27;20046;-48
2022/07/17 11:20:53;;;;;;;3.50;2.50;;;;;;;;;;5110569;27;20051;-50
2022/07/17 11:23:19;;;;;;;2.20;1.60;;;;;;;;;;5116263;28;20107;-49
2022/07/17 11:26:04;;;;;;;2.97;1.83;;;;;;;;;;5115230;28;20035;-48
2022/07/17 11:28:30;;;;;;;3.20;1.52;;;;;;;;;;5117486;27;20746;-51
2022/07/17 11:30:56;;;;;;;1.85;1.52;;;;;;;;;;5113836;28;20043;-49
2022/07/17 11:33:21;;;;;;;1.67;1.38;;;;;;;;;;5113963;28;20039;-48
2022/07/17 11:35:46;;;;;;;1.85;1.27;;;;;;;;;;5116762;27;20035;-49
2022/07/17 11:38:12;;;;;;;2.50;2.15;;;;;;;;;;5118886;27;20539;-46
2022/07/17 11:40:47;;;;;;;2.95;1.90;;;;;;;;;;5110592;28;20940;-51
2022/07/17 11:43:12;;;;;;;2.17;1.73;;;;;;;;;;5113221;27;20127;-46
2022/07/17 11:45:39;;;;;;;3.30;2.47;;;;;;;;;;5112637;27;20138;-52
2022/07/17 11:48:05;;;;;;;2.50;2.15;;;;;;;;;;5111108;28;20043;-50
2022/07/17 11:50:30;;;;;;;4.90;2.22;;;;;;;;;;5114536;27;20065;-48
2022/07/17 11:53:00;;;;;;;3.00;1.95;;;;;;;;;;5118998;27;20067;-47
2022/07/17 11:55:34;;;;;;;2.30;1.77;;;;;;;;;;5112126;27;20044;-46
2022/07/17 11:57:59;;;;;;;2.90;1.70;;;;;;;;;;5106060;28;20048;-47
2022/07/17 12:00:24;;;;;;;4.28;2.28;;;;;;;;;;5117143;27;20244;-50
2022/07/17 12:03:00;;;;;;;1.88;1.48;;;;;;;;;;5115996;27;20063;-46
2022/07/17 12:05:27;;;;;;;2.60;2.40;;;;;;;;;;5111521;27;20055;-50
2022/07/17 12:07:53;;;;;;;2.17;1.83;;;;;;;;;;5111844;27;20573;-56
2022/07/17 12:10:22;;;;;;;2.70;1.42;;;;;;;;;;5110955;27;20051;-53
2022/07/17 12:13:06;;;;;;;2.73;1.77;;;;;;;;;;5110416;27;20051;-55
2022/07/17 12:15:42;;;;;;;5.47;2.88;;;;;;;;;;5113222;27;20035;-52
2022/07/17 12:18:18;;;;;;;1.88;1.40;;;;;;;;;;5110479;27;20112;-47
2022/07/17 12:20:45;;;;;;;5.57;2.35;;;;;;;;;;5114439;27;20050;-51
2022/07/17 12:23:25;;;;;;;2.88;2.58;;;;;;;;;;5112394;27;20043;-52
2022/07/17 12:25:51;;;;;;;3.50;1.75;;;;;;;;;;5111587;27;20095;-48
2022/07/17 12:28:16;;;;;;;2.22;1.75;;;;;;;;;;5118782;27;20032;-49
2022/07/17 12:30:41;;;;;;;2.95;2.17;;;;;;;;;;5115451;27;20056;-54
2022/07/17 12:33:07;;;;;;;1.58;1.05;;;;;;;;;;5116356;27;20042;-52
2022/07/17 12:35:32;;;;;;;3.92;2.08;;;;;;;;;;5115320;27;20038;-49
2022/07/17 12:37:57;;;;;;;2.17;1.80;;;;;;;;;;5114942;27;20079;-54
2022/07/17 12:40:22;;;;;;;3.08;2.05;;;;;;;;;;5115146;27;20773;-50
2022/07/17 12:42:48;;;;;;;1.98;1.63;;;;;;;;;;5112699;28;20039;-52
2022/07/17 12:45:13;;;;;;;3.67;2.08;;;;;;;;;;5107816;27;20035;-52
2022/07/17 12:47:38;;;;;;;2.17;1.77;;;;;;;;;;5110613;27;20103;-50
2022/07/17 12:50:04;;;;;;;4.13;2.35;;;;;;;;;;5110776;27;20032;-47
2022/07/17 12:52:29;;;;;;;2.20;1.65;;;;;;;;;;5114683;27;20537;-54
2022/07/17 12:54:55;;;;;;;3.13;1.60;;;;;;;;;;5090883;28;20636;-48
2022/07/17 12:57:20;;;;;;;4.65;1.77;;;;;;;;;;5110708;28;20096;-48
2022/07/17 12:59:45;;;;;;;2.38;1.40;;;;;;;;;;5112816;27;20486;-52
2022/07/17 13:02:11;;;;;;;5.45;2.33;;;;;;;;;;5113340;27;20032;-48
2022/07/17 13:04:36;;;;;;;3.95;2.58;;;;;;;;;;5113822;27;20080;-49
2022/07/17 13:07:02;;;;;;;4.55;2.65;;;;;;;;;;5112244;28;20090;-53
2022/07/17 13:09:27;;;;;;;2.03;1.75;;;;;;;;;;5110949;27;20051;-54
2022/07/17 13:11:52;;;;;;;3.65;1.92;;;;;;;;;;5112644;27;20047;-49
2022/07/17 13:14:18;;;;;;;2.55;1.52;;;;;;;;;;5112410;27;20047;-48
2022/07/17 13:16:43;;;;;;;3.00;1.83;;;;;;;;;;5111812;27;20043;-50
2022/07/17 13:19:08;;;;;;;10.13;1.58;;;;;;;;;;5113319;27;20126;-53
2022/07/17 13:21:34;;;;;;;2.17;1.60;;;;;;;;;;5110829;27;20039;-50
2022/07/17 13:23:59;;;;;;;3.08;2.10;;;;;;;;;;5110626;27;20031;-51
2022/07/17 13:26:25;;;;;;;2.55;2.00;;;;;;;;;;5112054;28;20399;-48
2022/07/17 13:28:53;;;;;;;2.00;1.35;;;;;;;;;;5114602;27;20151;-47
2022/07/17 13:31:18;;;;;;;1.67;1.33;;;;;;;;;;5111893;27;20054;-48
2022/07/17 13:33:43;;;;;;;6.95;2.33;;;;;;;;;;5107183;28;20058;-53
2022/07/17 13:36:09;;;;;;;9.98;3.60;;;;;;;;;;5113280;27;20043;-50
2022/07/17 13:38:39;;;;;;;5.15;3.03;;;;;;;;;;5117703;27;20168;-49
2022/07/17 13:41:04;;;;;;;;;;;;;;;;;;5111067;27;20039;-53
2022/07/17 13:43:30;;;;;;;1.43;1.33;;;;;;;;;;5108076;28;20275;-51
2022/07/17 13:45:55;;;;;;;3.55;2.03;;;;;;;;;;5105836;27;20633;-52
2022/07/17 13:48:21;;;;;;;5.55;4.88;;;;;;;;;;5112051;27;20371;-53
2022/07/17 13:50:46;;;;;;;4.47;3.00;;;;;;;;;;5113675;27;20055;-48
2022/07/17 13:53:11;;;;;;;5.00;3.33;;;;;;;;;;5111112;27;20043;-53
2022/07/17 13:55:38;;;;;;;5.88;3.97;;;;;;;;;;5110401;27;20537;-50
2022/07/17 13:58:03;;;;;;;7.85;3.45;;;;;;;;;;5104069;28;20056;-53
2022/07/17 14:00:28;;;;;;;6.05;3.65;;;;;;;;;;5109804;27;20083;-52
2022/07/17 14:02:54;;;;;;;12.65;5.95;;;;;;;;;;5112794;27;20413;-54
2022/07/17 14:05:20;;;;;;;8.20;6.30;;;;;;;;;;5111540;28;20043;-51
2022/07/17 14:07:45;;;;;;;7.75;6.07;;;;;;;;;;5114503;27;20103;-53
2022/07/17 14:10:10;;;;;;;10.02;6.13;;;;;;;;;;5112191;28;20531;-53
2022/07/17 14:12:36;;;;;;;10.75;7.32;;;;;;;;;;5111201;27;20061;-53
2022/07/17 14:15:02;;;;;;;9.90;8.75;;;;;;;;;;5095033;28;20133;-53
2022/07/17 14:17:27;;;;;;;11.07;8.65;;;;;;;;;;5109199;28;20047;-50
2022/07/17 14:19:53;;;;;;;14.05;10.50;;;;;;;;;;5067510;28;20487;-53
2022/07/17 14:22:18;;;;;;;15.25;13.77;;;;;;;;;;5116954;27;20043;-53
2022/07/17 14:24:43;;;;;;;9.13;7.45;;;;;;;;;;5113663;27;20046;-53
2022/07/17 14:27:09;;;;;;;11.57;10.40;;;;;;;;;;5111903;27;20089;-55
2022/07/17 14:29:34;;;;;;;13.60;11.35;;;;;;;;;;5094015;28;20039;-54
2022/07/17 14:31:59;;;;;;;26.77;12.32;;;;;;;;;;5111763;27;20040;-50
2022/07/17 14:34:25;;;;;;;13.57;11.38;;;;;;;;;;5112867;27;20055;-53
2022/07/17 14:36:50;;;;;;;9.43;7.95;;;;;;;;;;5109492;28;20041;-51